createdAt,value
2022-08-24T00:00:38.032Z,20.70
2022-08-24T00:03:13.234Z,20.69
2022-08-24T00:05:45.051Z,20.70
2022-08-24T00:08:19.037Z,20.71
2022-08-24T00:10:50.808Z,20.69
2022-08-24T00:13:22.368Z,20.64
2022-08-24T00:15:58.192Z,20.62
2022-08-24T00:18:31.545Z,20.62
2022-08-24T00:21:03.978Z,20.58
2022-08-24T00:23:36.275Z,20.58
2022-08-24T00:26:08.356Z,20.57
2022-08-24T00:28:42.750Z,20.56
2022-08-24T00:31:14.546Z,20.54
2022-08-24T00:33:49.097Z,20.52
2022-08-24T00:36:21.971Z,20.52
2022-08-24T00:38:53.836Z,20.52
2022-08-24T00:41:25.581Z,20.51
2022-08-24T00:44:01.701Z,20.51
2022-08-24T00:46:59.692Z,20.53
2022-08-24T00:50:00.529Z,20.53
2022-08-24T00:52:47.209Z,20.52
2022-08-24T00:55:26.431Z,20.54
2022-08-24T00:58:05.095Z,20.55
2022-08-24T01:00:45.502Z,20.58
2022-08-24T01:03:20.199Z,20.55
2022-08-24T01:05:52.451Z,20.57
2022-08-24T01:08:24.950Z,20.58
2022-08-24T01:11:00.888Z,20.58
2022-08-24T01:13:33.305Z,20.58
2022-08-24T01:16:08.128Z,20.56
2022-08-24T01:18:49.783Z,20.55
2022-08-24T01:21:43.293Z,20.57
2022-08-24T01:24:15.312Z,20.59
2022-08-24T01:26:49.823Z,20.57
2022-08-24T01:29:29.085Z,20.52
2022-08-24T01:32:02.950Z,20.51
2022-08-24T01:34:34.795Z,20.51
2022-08-24T01:37:09.711Z,20.49
2022-08-24T01:39:44.769Z,20.48
2022-08-24T01:42:17.038Z,20.45
2022-08-24T01:44:48.872Z,20.44
2022-08-24T01:47:20.948Z,20.42
2022-08-24T01:49:52.644Z,20.44
2022-08-24T01:52:38.870Z,20.46
2022-08-24T01:55:19.060Z,20.46
2022-08-24T01:57:57.037Z,20.44
2022-08-24T02:00:29.893Z,20.43
2022-08-24T02:03:02.899Z,20.46
2022-08-24T02:05:36.410Z,20.44
2022-08-24T02:08:08.204Z,20.46
2022-08-24T02:10:40.109Z,20.47
2022-08-24T02:13:11.797Z,20.47
2022-08-24T02:15:44.152Z,20.46
2022-08-24T02:18:20.036Z,20.47
2022-08-24T02:20:52.088Z,20.46
2022-08-24T02:23:25.817Z,20.47
2022-08-24T02:25:58.109Z,20.47
2022-08-24T02:28:30.184Z,20.48
2022-08-24T02:31:05.918Z,20.47
2022-08-24T02:33:39.066Z,20.42
2022-08-24T02:36:25.350Z,20.42
2022-08-24T02:39:01.272Z,20.42
2022-08-24T02:41:32.893Z,20.38
2022-08-24T02:44:06.223Z,20.34
2022-08-24T02:46:38.871Z,20.34
2022-08-24T02:49:12.606Z,20.37
2022-08-24T02:51:46.922Z,20.35
2022-08-24T02:54:22.195Z,20.37
2022-08-24T02:56:56.639Z,20.37
2022-08-24T02:59:29.192Z,20.37
2022-08-24T03:02:01.033Z,20.37
2022-08-24T03:04:32.739Z,20.40
2022-08-24T03:07:06.166Z,20.43
2022-08-24T03:09:37.861Z,20.43
2022-08-24T03:12:09.585Z,20.38
2022-08-24T03:14:42.322Z,20.36
2022-08-24T03:17:13.977Z,20.38
2022-08-24T03:19:45.620Z,20.40
2022-08-24T03:22:17.331Z,20.40
2022-08-24T03:24:52.924Z,20.39
2022-08-24T03:27:25.177Z,20.39
2022-08-24T03:29:57.593Z,20.40
2022-08-24T03:32:29.742Z,20.39
2022-08-24T03:35:02.317Z,20.42
2022-08-24T03:37:34.170Z,20.44
2022-08-24T03:40:22.189Z,20.44
2022-08-24T03:42:55.524Z,20.46
2022-08-24T03:45:28.319Z,20.47
2022-08-24T03:48:02.588Z,20.44
2022-08-24T03:50:35.280Z,20.46
2022-08-24T03:53:07.324Z,20.44
2022-08-24T03:55:39.084Z,20.44
2022-08-24T03:58:10.952Z,20.44
2022-08-24T04:00:44.506Z,20.44
2022-08-24T04:03:18.746Z,20.42
2022-08-24T04:05:50.479Z,20.41
2022-08-24T04:08:24.357Z,20.36
2022-08-24T04:10:56.068Z,20.32
2022-08-24T04:13:33.534Z,20.33
2022-08-24T04:16:10.756Z,20.35
2022-08-24T04:18:44.190Z,20.38
2022-08-24T04:21:23.013Z,20.40
2022-08-24T04:23:55.984Z,20.38
2022-08-24T04:26:44.571Z,20.40
2022-08-24T04:29:19.505Z,20.46
2022-08-24T04:31:56.162Z,20.46
2022-08-24T04:34:28.870Z,20.49
2022-08-24T04:37:03.020Z,20.52
2022-08-24T04:39:34.997Z,20.46
2022-08-24T04:42:15.685Z,20.43
2022-08-24T04:44:47.808Z,20.47
2022-08-24T04:47:19.952Z,20.53
2022-08-24T04:49:52.727Z,20.56
2022-08-24T04:52:24.680Z,20.59
2022-08-24T04:54:57.454Z,20.61
2022-08-24T04:57:32.772Z,20.64
2022-08-24T05:00:06.514Z,20.64
2022-08-24T05:02:44.863Z,20.61
2022-08-24T05:05:17.881Z,20.63
2022-08-24T05:07:56.032Z,20.67
2022-08-24T05:10:33.671Z,20.67
2022-08-24T05:13:07.440Z,20.67
2022-08-24T05:15:46.348Z,20.71
2022-08-24T05:18:18.205Z,20.75
2022-08-24T05:20:50.069Z,20.76
2022-08-24T05:23:23.176Z,20.76
2022-08-24T05:26:11.408Z,20.72
2022-08-24T05:28:43.644Z,20.69
2022-08-24T05:31:21.684Z,20.68
2022-08-24T05:33:53.785Z,20.69
2022-08-24T05:36:32.166Z,20.69
2022-08-24T05:39:11.139Z,20.71
2022-08-24T05:41:46.285Z,20.70
2022-08-24T05:44:27.879Z,20.68
2022-08-24T05:47:03.361Z,20.61
2022-08-24T05:49:41.598Z,20.59
2022-08-24T05:52:14.464Z,20.62
2022-08-24T05:54:46.215Z,20.64
2022-08-24T05:57:24.352Z,20.68
2022-08-24T06:00:17.484Z,20.72
2022-08-24T06:02:53.420Z,20.79
2022-08-24T06:05:26.709Z,20.80
2022-08-24T06:07:58.313Z,20.81
2022-08-24T06:10:36.670Z,20.80
2022-08-24T06:13:09.720Z,20.78
2022-08-24T06:15:42.757Z,20.71
2022-08-24T06:18:17.656Z,20.69
2022-08-24T06:20:49.498Z,20.67
2022-08-24T06:23:21.954Z,20.59
2022-08-24T06:26:23.265Z,20.52
2022-08-24T06:28:55.358Z,20.47
2022-08-24T06:31:28.081Z,20.46
2022-08-24T06:34:01.221Z,20.40
2022-08-24T06:36:34.021Z,20.37
2022-08-24T06:39:06.460Z,20.37
2022-08-24T06:41:43.796Z,20.37
2022-08-24T06:44:16.819Z,20.40
2022-08-24T06:46:56.292Z,20.44
2022-08-24T06:49:28.053Z,20.41
2022-08-24T06:52:00.023Z,20.45
2022-08-24T06:54:32.485Z,20.48
2022-08-24T06:57:05.500Z,20.51
2022-08-24T06:59:38.129Z,20.56
2022-08-24T07:02:10.391Z,20.60
2022-08-24T07:04:43.113Z,20.59
2022-08-24T07:07:20.869Z,20.64
2022-08-24T07:09:52.774Z,20.68
2022-08-24T07:12:24.932Z,20.73
2022-08-24T07:14:57.161Z,20.77
2022-08-24T07:17:29.508Z,20.79
2022-08-24T07:20:05.136Z,20.77
2022-08-24T07:23:07.882Z,20.78
2022-08-24T07:25:40.841Z,20.82
2022-08-24T07:28:14.577Z,20.86
2022-08-24T07:30:48.300Z,20.93
2022-08-24T07:33:20.591Z,20.96
2022-08-24T07:35:52.249Z,20.98
2022-08-24T07:38:28.251Z,21.03
2022-08-24T07:41:38.198Z,21.06
2022-08-24T07:43:53.301Z,21.13
2022-08-24T07:46:25.124Z,21.16
2022-08-24T07:49:10.935Z,21.20
2022-08-24T07:51:46.694Z,21.25
2022-08-24T07:54:20.729Z,21.31
2022-08-24T07:56:56.440Z,21.33
2022-08-24T07:59:28.074Z,21.36
2022-08-24T08:02:01.286Z,21.45
2022-08-24T08:04:33.131Z,21.53
2022-08-24T08:07:07.373Z,21.60
2022-08-24T08:09:40.866Z,21.64
2022-08-24T08:12:15.393Z,21.71
2022-08-24T08:14:58.034Z,21.74
2022-08-24T08:17:29.721Z,21.78
2022-08-24T08:20:02.130Z,21.80
2022-08-24T08:22:53.398Z,21.90
2022-08-24T08:25:57.664Z,22.03
2022-08-24T08:28:42.659Z,22.12
2022-08-24T08:31:14.706Z,22.20
2022-08-24T08:33:46.969Z,22.18
2022-08-24T08:36:21.317Z,22.24
2022-08-24T08:38:56.378Z,22.18
2022-08-24T08:41:58.578Z,22.13
2022-08-24T08:44:53.356Z,22.18
2022-08-24T08:47:57.744Z,22.33
2022-08-24T08:50:56.816Z,22.41
2022-08-24T08:53:54.749Z,22.49
2022-08-24T08:56:34.935Z,22.63
2022-08-24T08:59:35.890Z,22.76
2022-08-24T09:02:29.273Z,22.93
2022-08-24T09:05:27.117Z,23.05
2022-08-24T09:08:09.247Z,23.17
2022-08-24T09:11:01.869Z,23.25
2022-08-24T09:14:03.255Z,23.29
2022-08-24T09:17:00.694Z,23.26
2022-08-24T09:20:05.356Z,23.22
2022-08-24T09:22:43.491Z,23.32
2022-08-24T09:25:36.056Z,23.51
2022-08-24T09:28:36.036Z,23.78
2022-08-24T09:34:17.576Z,23.75
2022-08-24T09:37:26.134Z,23.73
2022-08-24T09:40:04.511Z,23.86
2022-08-24T09:43:17.019Z,24.19
2022-08-24T09:46:06.889Z,24.38
2022-08-24T09:49:07.187Z,24.46
2022-08-24T09:52:09.266Z,24.31
2022-08-24T09:55:14.965Z,24.29
2022-08-24T09:58:24.121Z,24.45
2022-08-24T10:01:12.336Z,24.64
2022-08-24T10:04:08.418Z,24.70
2022-08-24T10:07:01.695Z,24.70
2022-08-24T10:10:02.422Z,24.89
2022-08-24T10:12:45.428Z,25.07
2022-08-24T10:15:38.414Z,25.20
2022-08-24T10:18:33.450Z,25.32
2022-08-24T10:21:25.557Z,25.25
2022-08-24T10:24:33.413Z,25.20
2022-08-24T10:27:32.488Z,25.24
2022-08-24T10:30:36.372Z,25.16
2022-08-24T10:33:33.396Z,25.16
2022-08-24T10:36:21.151Z,25.39
2022-08-24T10:39:43.242Z,25.54
2022-08-24T10:42:45.953Z,25.64
2022-08-24T10:45:49.999Z,25.89
2022-08-24T10:48:33.235Z,26.24
2022-08-24T10:51:25.161Z,26.43
2022-08-24T10:53:57.374Z,26.52
2022-08-24T10:56:36.017Z,26.55
2022-08-24T10:59:29.804Z,26.24
2022-08-24T11:02:12.889Z,26.10
2022-08-24T11:04:56.412Z,25.91
2022-08-24T11:07:28.745Z,25.91
2022-08-24T11:10:06.560Z,26.09
2022-08-24T11:12:45.002Z,26.42
2022-08-24T11:15:24.041Z,26.51
2022-08-24T11:17:58.119Z,26.78
2022-08-24T11:20:34.437Z,26.87
2022-08-24T11:23:10.238Z,27.07
2022-08-24T11:26:02.827Z,27.29
2022-08-24T11:28:46.788Z,27.36
2022-08-24T11:31:47.473Z,27.16
2022-08-24T11:34:37.937Z,27.10
2022-08-24T11:37:15.802Z,26.89
2022-08-24T11:39:47.558Z,26.86
2022-08-24T11:42:29.632Z,26.94
2022-08-24T11:45:14.993Z,26.86
2022-08-24T11:48:01.945Z,26.99
2022-08-24T11:50:48.685Z,27.16
2022-08-24T11:54:00.326Z,27.34
2022-08-24T11:56:45.849Z,27.40
2022-08-24T11:59:35.682Z,27.34
2022-08-24T12:02:14.467Z,27.47
2022-08-24T12:05:14.328Z,27.53
2022-08-24T12:07:56.657Z,27.54
2022-08-24T12:11:05.673Z,27.55
2022-08-24T12:14:00.941Z,27.75
2022-08-24T12:16:51.898Z,27.87
2022-08-24T12:19:34.109Z,27.81
2022-08-24T12:22:09.796Z,27.95
2022-08-24T12:24:45.538Z,27.93
2022-08-24T12:27:32.369Z,28.02
2022-08-24T12:30:06.512Z,28.56
2022-08-24T12:33:03.586Z,28.59
2022-08-24T12:35:44.134Z,28.47
2022-08-24T12:38:38.719Z,28.80
2022-08-24T12:41:19.582Z,28.94
2022-08-24T12:44:25.462Z,29.10
2022-08-24T12:46:57.364Z,29.19
2022-08-24T12:49:46.156Z,29.34
2022-08-24T12:52:55.771Z,29.41
2022-08-24T12:55:55.165Z,29.03
2022-08-24T12:59:00.453Z,29.11
2022-08-24T13:01:39.842Z,29.45
2022-08-24T13:04:33.079Z,29.66
2022-08-24T13:07:10.742Z,29.46
2022-08-24T13:09:46.241Z,29.33
2022-08-24T13:12:49.525Z,29.26
2022-08-24T13:15:24.569Z,29.29
2022-08-24T13:18:21.056Z,29.55
2022-08-24T13:20:55.493Z,29.56
2022-08-24T13:23:27.397Z,29.19
2022-08-24T13:26:23.179Z,28.74
2022-08-24T13:28:57.156Z,28.82
2022-08-24T13:31:42.242Z,28.95
2022-08-24T13:34:14.706Z,28.89
2022-08-24T13:37:18.689Z,28.74
2022-08-24T13:40:14.049Z,28.69
2022-08-24T13:43:16.197Z,28.74
2022-08-24T13:46:13.021Z,28.75
2022-08-24T13:48:54.419Z,28.65
2022-08-24T13:51:45.408Z,28.57
2022-08-24T13:54:32.590Z,28.42
2022-08-24T13:57:32.775Z,28.36
2022-08-24T14:00:17.923Z,28.45
2022-08-24T14:03:26.730Z,28.45
2022-08-24T14:06:17.005Z,28.25
2022-08-24T14:09:02.689Z,28.20
2022-08-24T14:11:46.019Z,28.07
2022-08-24T14:14:36.077Z,27.85
2022-08-24T14:17:40.238Z,27.87
2022-08-24T14:20:33.587Z,27.86
2022-08-24T14:23:31.088Z,27.73
2022-08-24T14:26:33.492Z,27.79
2022-08-24T14:29:19.851Z,27.89
2022-08-24T14:32:11.843Z,27.65
2022-08-24T14:35:15.936Z,27.45
2022-08-24T14:37:56.926Z,27.60
2022-08-24T14:40:42.791Z,27.74
2022-08-24T14:43:30.056Z,27.86
2022-08-24T14:46:33.831Z,28.03
2022-08-24T14:49:35.993Z,27.97
2022-08-24T14:52:23.624Z,27.89
2022-08-24T14:55:20.437Z,27.65
2022-08-24T14:58:25.466Z,27.45
2022-08-24T15:01:10.001Z,27.38
2022-08-24T15:04:12.205Z,27.31
2022-08-24T15:06:53.772Z,27.03
2022-08-24T15:09:35.568Z,26.87
2022-08-24T15:12:23.177Z,26.75
2022-08-24T15:15:02.072Z,26.71
2022-08-24T15:18:11.637Z,26.65
2022-08-24T15:21:18.106Z,26.57
2022-08-24T15:24:15.655Z,26.60
2022-08-24T15:27:05.859Z,26.52
2022-08-24T15:29:56.937Z,26.51
2022-08-24T15:32:48.910Z,26.53
2022-08-24T15:35:32.673Z,26.49
2022-08-24T15:38:25.587Z,26.43
2022-08-24T15:41:19.194Z,26.39
2022-08-24T15:43:56.797Z,26.32
2022-08-24T15:46:38.179Z,26.38
2022-08-24T15:49:28.750Z,26.41
2022-08-24T15:52:30.068Z,26.47
2022-08-24T15:55:04.365Z,26.53
2022-08-24T15:57:41.513Z,26.43
2022-08-24T16:00:38.189Z,26.38
2022-08-24T16:03:22.210Z,26.31
2022-08-24T16:05:56.721Z,26.21
2022-08-24T16:08:57.143Z,26.15
2022-08-24T16:11:38.357Z,26.07
2022-08-24T16:14:35.737Z,26.05
2022-08-24T16:17:43.015Z,26.05
2022-08-24T16:20:35.421Z,25.93
2022-08-24T16:23:13.499Z,25.87
2022-08-24T16:25:50.555Z,25.86
2022-08-24T16:28:22.762Z,25.79
2022-08-24T16:31:07.362Z,25.77
2022-08-24T16:33:47.640Z,25.77
2022-08-24T16:36:20.410Z,25.74
2022-08-24T16:38:52.047Z,25.71
2022-08-24T16:41:24.890Z,25.70
2022-08-24T16:43:56.488Z,25.56
2022-08-24T16:46:28.192Z,25.51
2022-08-24T16:48:59.928Z,25.43
2022-08-24T16:51:34.677Z,25.42
2022-08-24T16:54:10.470Z,25.44
2022-08-24T16:56:43.518Z,25.42
2022-08-24T16:59:20.065Z,25.33
2022-08-24T17:01:51.712Z,25.37
2022-08-24T17:04:23.493Z,25.41
2022-08-24T17:06:55.594Z,25.44
2022-08-24T17:09:27.337Z,25.40
2022-08-24T17:11:58.919Z,25.34
2022-08-24T17:14:33.199Z,25.26
2022-08-24T17:17:07.646Z,25.23
2022-08-24T17:19:40.381Z,25.21
2022-08-24T17:22:16.554Z,25.20
2022-08-24T17:24:48.980Z,25.19
2022-08-24T17:27:28.842Z,25.08
2022-08-24T17:30:05.255Z,25.03
2022-08-24T17:32:37.281Z,25.02
2022-08-24T17:35:09.349Z,25.03
2022-08-24T17:37:41.581Z,25.00
2022-08-24T17:40:17.931Z,25.02
2022-08-24T17:42:51.664Z,25.00
2022-08-24T17:45:23.971Z,24.97
2022-08-24T17:47:55.645Z,24.94
2022-08-24T17:50:28.607Z,24.91
2022-08-24T17:53:00.590Z,24.86
2022-08-24T17:55:32.391Z,24.82
2022-08-24T17:58:07.187Z,24.78
2022-08-24T18:00:39.108Z,24.72
2022-08-24T18:03:16.346Z,24.68
2022-08-24T18:05:48.366Z,24.60
2022-08-24T18:08:19.934Z,24.54
2022-08-24T18:10:53.614Z,24.45
2022-08-24T18:13:25.172Z,24.42
2022-08-24T18:15:56.771Z,24.37
2022-08-24T18:18:31.065Z,24.32
2022-08-24T18:21:02.651Z,24.26
2022-08-24T18:23:34.823Z,24.21
2022-08-24T18:26:21.460Z,24.15
2022-08-24T18:29:11.111Z,24.09
2022-08-24T18:31:43.941Z,24.02
2022-08-24T18:34:19.455Z,23.98
2022-08-24T18:36:52.143Z,23.94
2022-08-24T18:39:24.028Z,23.87
2022-08-24T18:42:00.311Z,23.82
2022-08-24T18:44:32.083Z,23.77
2022-08-24T18:47:03.854Z,23.73
2022-08-24T18:49:35.858Z,23.67
2022-08-24T18:52:09.910Z,23.61
2022-08-24T18:54:47.490Z,23.59
2022-08-24T18:57:20.001Z,23.57
2022-08-24T18:59:51.671Z,23.52
2022-08-24T19:02:30.385Z,23.48
2022-08-24T19:05:12.724Z,23.41
2022-08-24T19:07:47.935Z,23.33
2022-08-24T19:10:25.838Z,23.28
2022-08-24T19:13:02.055Z,23.23
2022-08-24T19:15:39.908Z,23.19
2022-08-24T19:18:12.397Z,23.14
2022-08-24T19:20:49.263Z,23.08
2022-08-24T19:23:34.233Z,23.04
2022-08-24T19:26:06.287Z,22.99
2022-08-24T19:28:38.083Z,22.95
2022-08-24T19:31:12.958Z,22.89
2022-08-24T19:33:46.725Z,22.84
2022-08-24T19:36:22.345Z,22.80
2022-08-24T19:38:54.199Z,22.75
2022-08-24T19:41:36.432Z,22.69
2022-08-24T19:44:27.878Z,22.65
2022-08-24T19:46:59.722Z,22.60
2022-08-24T19:49:33.177Z,22.57
2022-08-24T19:52:04.802Z,22.52
2022-08-24T19:54:39.558Z,22.48
2022-08-24T19:57:35.936Z,22.43
2022-08-24T20:00:17.085Z,22.40
2022-08-24T20:02:50.978Z,22.35
2022-08-24T20:05:25.291Z,22.32
2022-08-24T20:07:57.893Z,22.29
2022-08-24T20:10:31.206Z,22.25
2022-08-24T20:13:03.330Z,22.19
2022-08-24T20:15:35.243Z,22.16
2022-08-24T20:18:07.820Z,22.12
2022-08-24T20:20:39.446Z,22.10
2022-08-24T20:23:13.814Z,22.09
2022-08-24T20:25:46.265Z,22.03
2022-08-24T20:28:29.260Z,22.00
2022-08-24T20:31:01.826Z,21.98
2022-08-24T20:33:34.085Z,21.96
2022-08-24T20:36:07.150Z,21.94
2022-08-24T20:38:39.724Z,21.91
2022-08-24T20:41:13.974Z,21.89
2022-08-24T20:43:49.052Z,21.86
2022-08-24T20:46:21.031Z,21.84
2022-08-24T20:48:55.554Z,21.80
2022-08-24T20:51:27.805Z,21.76
2022-08-24T20:54:00.239Z,21.73
2022-08-24T20:56:35.316Z,21.71
2022-08-24T20:59:09.747Z,21.71
2022-08-24T21:01:42.903Z,21.68
2022-08-24T21:04:14.603Z,21.67
2022-08-24T21:06:46.260Z,21.64
2022-08-24T21:09:22.953Z,21.60
2022-08-24T21:11:54.600Z,21.55
2022-08-24T21:14:26.290Z,21.53
2022-08-24T21:16:58.626Z,21.51
2022-08-24T21:19:31.265Z,21.50
2022-08-24T21:22:03.886Z,21.45
2022-08-24T21:24:35.505Z,21.41
2022-08-24T21:27:08.359Z,21.38
2022-08-24T21:29:42.719Z,21.35
2022-08-24T21:32:32.915Z,21.32
2022-08-24T21:35:04.877Z,21.30
2022-08-24T21:37:37.521Z,21.26
2022-08-24T21:40:09.670Z,21.23
2022-08-24T21:42:41.321Z,21.18
2022-08-24T21:45:12.926Z,21.14
2022-08-24T21:47:46.068Z,21.12
2022-08-24T21:50:18.205Z,21.11
2022-08-24T21:52:53.475Z,21.06
2022-08-24T21:55:26.974Z,21.05
2022-08-24T21:57:58.580Z,21.04
2022-08-24T22:00:30.224Z,21.05
2022-08-24T22:03:05.897Z,21.03
2022-08-24T22:05:37.860Z,21.02
2022-08-24T22:08:09.447Z,21.00
2022-08-24T22:10:41.591Z,20.98
2022-08-24T22:13:13.245Z,20.96
2022-08-24T22:15:44.877Z,20.92
2022-08-24T22:18:16.628Z,20.90
2022-08-24T22:20:48.257Z,20.87
2022-08-24T22:23:19.908Z,20.85
2022-08-24T22:25:53.417Z,20.80
2022-08-24T22:28:25.053Z,20.77
2022-08-24T22:30:56.837Z,20.71
2022-08-24T22:33:29.105Z,20.69
2022-08-24T22:36:00.731Z,20.65
2022-08-24T22:38:32.309Z,20.63
2022-08-24T22:41:03.970Z,20.59
2022-08-24T22:43:54.243Z,20.56
2022-08-24T22:46:26.281Z,20.54
2022-08-24T22:48:59.378Z,20.53
2022-08-24T22:51:31.245Z,20.50
2022-08-24T22:54:03.168Z,20.48
2022-08-24T22:56:38.529Z,20.46
2022-08-24T22:59:18.328Z,20.42
2022-08-24T23:01:52.329Z,20.44
2022-08-24T23:04:27.867Z,20.36
2022-08-24T23:07:00.256Z,20.34
2022-08-24T23:09:44.816Z,20.32
2022-08-24T23:12:20.203Z,20.32
2022-08-24T23:14:53.076Z,20.30
2022-08-24T23:17:24.743Z,20.27
2022-08-24T23:20:05.817Z,20.24
2022-08-24T23:22:40.434Z,20.21
2022-08-24T23:25:13.236Z,20.19
2022-08-24T23:27:48.042Z,20.16
2022-08-24T23:30:22.206Z,20.14
2022-08-24T23:32:53.761Z,20.07
2022-08-24T23:35:25.459Z,20.03
2022-08-24T23:37:57.580Z,20.02
2022-08-24T23:40:29.196Z,20.03
2022-08-24T23:43:00.765Z,19.97
2022-08-24T23:45:32.409Z,19.95
2022-08-24T23:48:04.356Z,19.94
2022-08-24T23:50:36.121Z,19.94
2022-08-24T23:53:07.679Z,19.93
2022-08-24T23:55:39.304Z,19.91
2022-08-24T23:58:10.885Z,19.89
